sensor_id;sensor_type;location;lat;lon;timestamp;P1;durP1;ratioP1;P2;durP2;ratioP2
29908;SDS011;36247;51.952;6.146;2022-09-25T00:01:32;13.05;;;3.50;;
29908;SDS011;36247;51.952;6.146;2022-09-25T00:03:57;5.50;;;3.22;;
29908;SDS011;36247;51.952;6.146;2022-09-25T00:06:23;13.38;;;3.38;;
29908;SDS011;36247;51.952;6.146;2022-09-25T00:08:50;15.43;;;4.10;;
29908;SDS011;36247;51.952;6.146;2022-09-25T00:11:20;10.73;;;3.55;;
29908;SDS011;36247;51.952;6.146;2022-09-25T00:13:48;10.05;;;3.67;;
29908;SDS011;36247;51.952;6.146;2022-09-25T00:16:16;10.68;;;3.30;;
29908;SDS011;36247;51.952;6.146;2022-09-25T00:18:43;12.30;;;3.60;;
29908;SDS011;36247;51.952;6.146;2022-09-25T00:21:27;7.55;;;3.25;;
29908;SDS011;36247;51.952;6.146;2022-09-25T00:23:55;10.43;;;3.40;;
29908;SDS011;36247;51.952;6.146;2022-09-25T00:26:25;6.00;;;3.10;;
29908;SDS011;36247;51.952;6.146;2022-09-25T00:28:53;8.32;;;3.20;;
29908;SDS011;36247;51.952;6.146;2022-09-25T00:31:20;8.82;;;2.70;;
29908;SDS011;36247;51.952;6.146;2022-09-25T00:33:50;8.73;;;3.10;;
29908;SDS011;36247;51.952;6.146;2022-09-25T00:36:16;12.88;;;3.13;;
29908;SDS011;36247;51.952;6.146;2022-09-25T00:38:42;9.27;;;2.85;;
29908;SDS011;36247;51.952;6.146;2022-09-25T00:41:10;16.92;;;3.92;;
29908;SDS011;36247;51.952;6.146;2022-09-25T00:46:07;10.18;;;4.22;;
29908;SDS011;36247;51.952;6.146;2022-09-25T00:48:37;13.23;;;4.00;;
29908;SDS011;36247;51.952;6.146;2022-09-25T00:51:08;14.05;;;3.65;;
29908;SDS011;36247;51.952;6.146;2022-09-25T00:53:36;10.98;;;5.13;;
29908;SDS011;36247;51.952;6.146;2022-09-25T00:56:04;13.73;;;4.70;;
29908;SDS011;36247;51.952;6.146;2022-09-25T00:58:33;17.00;;;4.72;;
29908;SDS011;36247;51.952;6.146;2022-09-25T01:01:02;10.52;;;5.10;;
29908;SDS011;36247;51.952;6.146;2022-09-25T01:03:28;10.63;;;4.20;;
29908;SDS011;36247;51.952;6.146;2022-09-25T01:05:54;12.23;;;4.80;;
29908;SDS011;36247;51.952;6.146;2022-09-25T01:08:23;8.70;;;4.63;;
29908;SDS011;36247;51.952;6.146;2022-09-25T01:10:51;8.73;;;4.15;;
29908;SDS011;36247;51.952;6.146;2022-09-25T01:13:17;11.90;;;4.88;;
29908;SDS011;36247;51.952;6.146;2022-09-25T01:15:50;9.85;;;5.10;;
29908;SDS011;36247;51.952;6.146;2022-09-25T01:18:30;18.45;;;6.28;;
29908;SDS011;36247;51.952;6.146;2022-09-25T01:29:26;13.45;;;4.88;;
29908;SDS011;36247;51.952;6.146;2022-09-25T01:32:09;11.13;;;3.90;;
29908;SDS011;36247;51.952;6.146;2022-09-25T01:42:41;9.00;;;3.83;;
29908;SDS011;36247;51.952;6.146;2022-09-25T01:45:18;9.55;;;3.80;;
29908;SDS011;36247;51.952;6.146;2022-09-25T01:47:48;8.20;;;3.65;;
29908;SDS011;36247;51.952;6.146;2022-09-25T01:50:31;9.80;;;3.28;;
29908;SDS011;36247;51.952;6.146;2022-09-25T01:53:03;10.88;;;3.55;;
29908;SDS011;36247;51.952;6.146;2022-09-25T01:55:39;11.15;;;4.22;;
29908;SDS011;36247;51.952;6.146;2022-09-25T01:58:29;10.98;;;3.67;;
29908;SDS011;36247;51.952;6.146;2022-09-25T02:01:03;8.63;;;3.65;;
29908;SDS011;36247;51.952;6.146;2022-09-25T02:03:52;8.13;;;3.67;;
29908;SDS011;36247;51.952;6.146;2022-09-25T02:06:22;10.27;;;2.90;;
29908;SDS011;36247;51.952;6.146;2022-09-25T02:08:54;10.30;;;3.40;;
29908;SDS011;36247;51.952;6.146;2022-09-25T02:11:27;8.57;;;3.83;;
29908;SDS011;36247;51.952;6.146;2022-09-25T02:14:00;14.77;;;3.35;;
29908;SDS011;36247;51.952;6.146;2022-09-25T02:16:34;10.73;;;3.35;;
29908;SDS011;36247;51.952;6.146;2022-09-25T02:19:03;10.70;;;4.22;;
29908;SDS011;36247;51.952;6.146;2022-09-25T02:21:49;9.32;;;3.50;;
29908;SDS011;36247;51.952;6.146;2022-09-25T02:26:56;14.43;;;3.25;;
29908;SDS011;36247;51.952;6.146;2022-09-25T02:29:22;7.97;;;3.13;;
29908;SDS011;36247;51.952;6.146;2022-09-25T02:31:50;8.38;;;3.30;;
29908;SDS011;36247;51.952;6.146;2022-09-25T02:34:21;13.73;;;3.60;;
29908;SDS011;36247;51.952;6.146;2022-09-25T02:36:47;11.82;;;3.22;;
29908;SDS011;36247;51.952;6.146;2022-09-25T02:39:14;11.20;;;3.33;;
29908;SDS011;36247;51.952;6.146;2022-09-25T02:52:46;5.18;;;4.15;;
29908;SDS011;36247;51.952;6.146;2022-09-25T02:58:29;12.88;;;3.70;;
29908;SDS011;36247;51.952;6.146;2022-09-25T03:01:01;6.70;;;3.45;;
29908;SDS011;36247;51.952;6.146;2022-09-25T03:03:30;10.82;;;3.40;;
29908;SDS011;36247;51.952;6.146;2022-09-25T03:05:57;10.55;;;2.92;;
29908;SDS011;36247;51.952;6.146;2022-09-25T03:08:25;7.03;;;3.10;;
29908;SDS011;36247;51.952;6.146;2022-09-25T03:11:10;9.48;;;3.97;;
29908;SDS011;36247;51.952;6.146;2022-09-25T03:13:40;7.15;;;2.80;;
29908;SDS011;36247;51.952;6.146;2022-09-25T03:16:14;7.82;;;3.03;;
29908;SDS011;36247;51.952;6.146;2022-09-25T03:18:45;6.97;;;3.22;;
29908;SDS011;36247;51.952;6.146;2022-09-25T03:21:11;10.73;;;3.25;;
29908;SDS011;36247;51.952;6.146;2022-09-25T03:23:38;8.00;;;3.13;;
29908;SDS011;36247;51.952;6.146;2022-09-25T03:26:04;6.28;;;2.90;;
29908;SDS011;36247;51.952;6.146;2022-09-25T03:28:30;10.98;;;3.30;;
29908;SDS011;36247;51.952;6.146;2022-09-25T03:30:56;6.68;;;3.05;;
29908;SDS011;36247;51.952;6.146;2022-09-25T03:33:25;6.40;;;3.13;;
29908;SDS011;36247;51.952;6.146;2022-09-25T03:36:02;9.35;;;3.00;;
29908;SDS011;36247;51.952;6.146;2022-09-25T03:38:35;8.18;;;3.55;;
29908;SDS011;36247;51.952;6.146;2022-09-25T03:41:01;17.05;;;4.38;;
29908;SDS011;36247;51.952;6.146;2022-09-25T03:43:28;10.90;;;3.65;;
29908;SDS011;36247;51.952;6.146;2022-09-25T03:45:57;5.93;;;3.28;;
29908;SDS011;36247;51.952;6.146;2022-09-25T03:48:23;8.07;;;3.50;;
29908;SDS011;36247;51.952;6.146;2022-09-25T03:50:48;8.98;;;3.30;;
29908;SDS011;36247;51.952;6.146;2022-09-25T03:53:14;12.95;;;3.97;;
29908;SDS011;36247;51.952;6.146;2022-09-25T03:55:42;4.30;;;3.13;;
29908;SDS011;36247;51.952;6.146;2022-09-25T03:58:11;10.95;;;3.60;;
29908;SDS011;36247;51.952;6.146;2022-09-25T04:00:39;17.02;;;4.10;;
29908;SDS011;36247;51.952;6.146;2022-09-25T04:03:05;10.48;;;4.03;;
29908;SDS011;36247;51.952;6.146;2022-09-25T04:05:30;11.30;;;3.83;;
29908;SDS011;36247;51.952;6.146;2022-09-25T04:07:56;7.13;;;3.20;;
29908;SDS011;36247;51.952;6.146;2022-09-25T04:10:22;11.85;;;3.78;;
29908;SDS011;36247;51.952;6.146;2022-09-25T04:12:47;8.43;;;3.80;;
29908;SDS011;36247;51.952;6.146;2022-09-25T04:15:19;5.82;;;3.13;;
29908;SDS011;36247;51.952;6.146;2022-09-25T04:17:47;16.77;;;5.15;;
29908;SDS011;36247;51.952;6.146;2022-09-25T04:20:13;7.90;;;3.03;;
29908;SDS011;36247;51.952;6.146;2022-09-25T04:22:39;10.80;;;4.43;;
29908;SDS011;36247;51.952;6.146;2022-09-25T04:25:04;7.05;;;3.80;;
29908;SDS011;36247;51.952;6.146;2022-09-25T04:27:30;8.05;;;3.60;;
29908;SDS011;36247;51.952;6.146;2022-09-25T04:29:56;4.45;;;2.65;;
29908;SDS011;36247;51.952;6.146;2022-09-25T04:32:22;5.03;;;3.28;;
29908;SDS011;36247;51.952;6.146;2022-09-25T04:35:06;9.25;;;3.17;;
29908;SDS011;36247;51.952;6.146;2022-09-25T04:37:32;7.55;;;3.42;;
29908;SDS011;36247;51.952;6.146;2022-09-25T04:39:57;5.75;;;3.13;;
29908;SDS011;36247;51.952;6.146;2022-09-25T04:42:23;9.55;;;3.22;;
29908;SDS011;36247;51.952;6.146;2022-09-25T04:44:53;6.20;;;3.20;;
29908;SDS011;36247;51.952;6.146;2022-09-25T04:47:20;3.35;;;2.50;;
29908;SDS011;36247;51.952;6.146;2022-09-25T04:49:46;5.97;;;2.95;;
29908;SDS011;36247;51.952;6.146;2022-09-25T04:52:13;7.50;;;3.10;;
29908;SDS011;36247;51.952;6.146;2022-09-25T04:54:40;5.18;;;2.90;;
29908;SDS011;36247;51.952;6.146;2022-09-25T04:57:07;4.75;;;2.20;;
29908;SDS011;36247;51.952;6.146;2022-09-25T04:59:39;5.38;;;2.35;;
29908;SDS011;36247;51.952;6.146;2022-09-25T05:02:05;2.70;;;2.20;;
29908;SDS011;36247;51.952;6.146;2022-09-25T05:04:31;2.40;;;1.70;;
29908;SDS011;36247;51.952;6.146;2022-09-25T05:06:57;2.38;;;2.00;;
29908;SDS011;36247;51.952;6.146;2022-09-25T05:09:22;1.83;;;1.60;;
29908;SDS011;36247;51.952;6.146;2022-09-25T05:11:48;5.78;;;2.83;;
29908;SDS011;36247;51.952;6.146;2022-09-25T05:14:13;4.68;;;1.85;;
29908;SDS011;36247;51.952;6.146;2022-09-25T05:16:39;3.30;;;2.50;;
29908;SDS011;36247;51.952;6.146;2022-09-25T05:19:04;4.75;;;2.53;;
29908;SDS011;36247;51.952;6.146;2022-09-25T05:21:30;7.55;;;2.80;;
29908;SDS011;36247;51.952;6.146;2022-09-25T05:23:57;6.43;;;4.72;;
29908;SDS011;36247;51.952;6.146;2022-09-25T05:26:23;9.23;;;2.95;;
29908;SDS011;36247;51.952;6.146;2022-09-25T05:28:49;4.40;;;2.08;;
29908;SDS011;36247;51.952;6.146;2022-09-25T05:31:15;3.78;;;2.13;;
29908;SDS011;36247;51.952;6.146;2022-09-25T05:33:41;3.20;;;2.30;;
29908;SDS011;36247;51.952;6.146;2022-09-25T05:36:07;4.88;;;2.20;;
29908;SDS011;36247;51.952;6.146;2022-09-25T05:38:34;5.60;;;2.70;;
29908;SDS011;36247;51.952;6.146;2022-09-25T05:41:01;3.65;;;2.65;;
29908;SDS011;36247;51.952;6.146;2022-09-25T05:43:38;3.70;;;2.50;;
29908;SDS011;36247;51.952;6.146;2022-09-25T05:46:05;3.08;;;2.10;;
29908;SDS011;36247;51.952;6.146;2022-09-25T05:48:31;2.50;;;1.55;;
29908;SDS011;36247;51.952;6.146;2022-09-25T05:50:57;3.15;;;2.25;;
29908;SDS011;36247;51.952;6.146;2022-09-25T05:53:23;1.70;;;1.27;;
29908;SDS011;36247;51.952;6.146;2022-09-25T05:55:53;5.70;;;3.03;;
29908;SDS011;36247;51.952;6.146;2022-09-25T05:58:22;6.40;;;2.10;;
29908;SDS011;36247;51.952;6.146;2022-09-25T06:00:48;4.35;;;2.78;;
29908;SDS011;36247;51.952;6.146;2022-09-25T06:03:15;4.68;;;3.00;;
29908;SDS011;36247;51.952;6.146;2022-09-25T06:05:41;7.20;;;3.65;;
29908;SDS011;36247;51.952;6.146;2022-09-25T06:08:10;7.32;;;2.83;;
29908;SDS011;36247;51.952;6.146;2022-09-25T06:10:39;11.40;;;3.50;;
29908;SDS011;36247;51.952;6.146;2022-09-25T06:13:05;7.65;;;2.80;;
29908;SDS011;36247;51.952;6.146;2022-09-25T06:15:32;8.18;;;3.22;;
29908;SDS011;36247;51.952;6.146;2022-09-25T06:18:05;8.77;;;3.72;;
29908;SDS011;36247;51.952;6.146;2022-09-25T06:20:32;10.77;;;3.40;;
29908;SDS011;36247;51.952;6.146;2022-09-25T06:22:58;12.15;;;3.33;;
29908;SDS011;36247;51.952;6.146;2022-09-25T06:25:28;9.63;;;4.88;;
29908;SDS011;36247;51.952;6.146;2022-09-25T06:27:57;12.40;;;3.00;;
29908;SDS011;36247;51.952;6.146;2022-09-25T06:30:24;9.82;;;3.03;;
29908;SDS011;36247;51.952;6.146;2022-09-25T06:33:02;9.65;;;3.78;;
29908;SDS011;36247;51.952;6.146;2022-09-25T06:35:34;11.45;;;3.47;;
29908;SDS011;36247;51.952;6.146;2022-09-25T06:38:01;6.15;;;3.28;;
29908;SDS011;36247;51.952;6.146;2022-09-25T06:40:28;8.27;;;3.75;;
29908;SDS011;36247;51.952;6.146;2022-09-25T06:42:55;7.65;;;2.95;;
29908;SDS011;36247;51.952;6.146;2022-09-25T06:45:25;8.13;;;3.03;;
29908;SDS011;36247;51.952;6.146;2022-09-25T06:47:53;9.52;;;3.22;;
29908;SDS011;36247;51.952;6.146;2022-09-25T06:50:25;12.65;;;3.38;;
29908;SDS011;36247;51.952;6.146;2022-09-25T06:52:59;13.13;;;3.78;;
29908;SDS011;36247;51.952;6.146;2022-09-25T06:55:25;5.47;;;3.30;;
29908;SDS011;36247;51.952;6.146;2022-09-25T06:57:53;7.63;;;3.67;;
29908;SDS011;36247;51.952;6.146;2022-09-25T07:00:18;10.65;;;3.30;;
29908;SDS011;36247;51.952;6.146;2022-09-25T07:02:44;5.38;;;3.42;;
29908;SDS011;36247;51.952;6.146;2022-09-25T07:05:28;6.90;;;3.50;;
29908;SDS011;36247;51.952;6.146;2022-09-25T07:07:53;7.85;;;3.45;;
29908;SDS011;36247;51.952;6.146;2022-09-25T07:10:20;6.03;;;3.25;;
29908;SDS011;36247;51.952;6.146;2022-09-25T07:12:46;10.23;;;4.00;;
29908;SDS011;36247;51.952;6.146;2022-09-25T07:15:12;7.15;;;3.17;;
29908;SDS011;36247;51.952;6.146;2022-09-25T07:17:41;8.73;;;3.25;;
29908;SDS011;36247;51.952;6.146;2022-09-25T07:20:08;10.40;;;3.08;;
29908;SDS011;36247;51.952;6.146;2022-09-25T07:22:37;9.75;;;2.80;;
29908;SDS011;36247;51.952;6.146;2022-09-25T07:25:03;7.18;;;3.25;;
29908;SDS011;36247;51.952;6.146;2022-09-25T07:27:29;9.18;;;3.22;;
29908;SDS011;36247;51.952;6.146;2022-09-25T07:29:54;8.88;;;3.33;;
29908;SDS011;36247;51.952;6.146;2022-09-25T07:32:20;9.73;;;3.25;;
29908;SDS011;36247;51.952;6.146;2022-09-25T07:34:46;11.85;;;3.83;;
29908;SDS011;36247;51.952;6.146;2022-09-25T07:37:15;7.25;;;2.85;;
29908;SDS011;36247;51.952;6.146;2022-09-25T07:39:41;6.68;;;2.78;;
29908;SDS011;36247;51.952;6.146;2022-09-25T07:42:07;13.18;;;3.10;;
29908;SDS011;36247;51.952;6.146;2022-09-25T07:44:32;10.90;;;2.92;;
29908;SDS011;36247;51.952;6.146;2022-09-25T07:46:58;8.45;;;3.00;;
29908;SDS011;36247;51.952;6.146;2022-09-25T07:49:24;4.38;;;2.58;;
29908;SDS011;36247;51.952;6.146;2022-09-25T07:51:50;10.57;;;3.20;;
29908;SDS011;36247;51.952;6.146;2022-09-25T07:54:16;9.40;;;3.10;;
29908;SDS011;36247;51.952;6.146;2022-09-25T07:56:41;7.65;;;2.83;;
29908;SDS011;36247;51.952;6.146;2022-09-25T07:59:07;7.22;;;2.53;;
29908;SDS011;36247;51.952;6.146;2022-09-25T08:01:32;11.20;;;2.67;;
29908;SDS011;36247;51.952;6.146;2022-09-25T08:03:58;12.02;;;2.22;;
29908;SDS011;36247;51.952;6.146;2022-09-25T08:06:23;9.95;;;2.78;;
29908;SDS011;36247;51.952;6.146;2022-09-25T08:08:48;5.28;;;2.10;;
29908;SDS011;36247;51.952;6.146;2022-09-25T08:11:15;12.68;;;3.20;;
29908;SDS011;36247;51.952;6.146;2022-09-25T08:13:41;11.40;;;2.70;;
29908;SDS011;36247;51.952;6.146;2022-09-25T08:16:08;3.75;;;2.03;;
29908;SDS011;36247;51.952;6.146;2022-09-25T08:18:36;5.75;;;2.45;;
29908;SDS011;36247;51.952;6.146;2022-09-25T08:21:03;8.63;;;2.20;;
29908;SDS011;36247;51.952;6.146;2022-09-25T08:23:29;5.80;;;2.55;;
29908;SDS011;36247;51.952;6.146;2022-09-25T08:25:55;5.05;;;2.05;;
29908;SDS011;36247;51.952;6.146;2022-09-25T08:28:21;6.15;;;2.33;;
29908;SDS011;36247;51.952;6.146;2022-09-25T08:30:47;8.40;;;1.83;;
29908;SDS011;36247;51.952;6.146;2022-09-25T08:33:13;5.53;;;1.77;;
29908;SDS011;36247;51.952;6.146;2022-09-25T08:35:39;11.25;;;2.25;;
29908;SDS011;36247;51.952;6.146;2022-09-25T08:38:08;4.68;;;1.77;;
29908;SDS011;36247;51.952;6.146;2022-09-25T08:40:45;10.35;;;1.90;;
29908;SDS011;36247;51.952;6.146;2022-09-25T08:45:46;5.22;;;1.80;;
29908;SDS011;36247;51.952;6.146;2022-09-25T08:48:36;4.75;;;1.60;;
29908;SDS011;36247;51.952;6.146;2022-09-25T08:54:13;5.45;;;1.00;;
29908;SDS011;36247;51.952;6.146;2022-09-25T08:56:44;3.13;;;1.48;;
29908;SDS011;36247;51.952;6.146;2022-09-25T08:59:34;5.75;;;1.50;;
29908;SDS011;36247;51.952;6.146;2022-09-25T09:02:13;9.27;;;1.92;;
29908;SDS011;36247;51.952;6.146;2022-09-25T09:04:43;4.47;;;1.40;;
29908;SDS011;36247;51.952;6.146;2022-09-25T09:07:16;3.25;;;1.00;;
29908;SDS011;36247;51.952;6.146;2022-09-25T09:12:40;2.85;;;1.10;;
29908;SDS011;36247;51.952;6.146;2022-09-25T09:17:45;4.43;;;1.65;;
29908;SDS011;36247;51.952;6.146;2022-09-25T09:20:22;2.80;;;0.93;;
29908;SDS011;36247;51.952;6.146;2022-09-25T09:23:14;8.48;;;1.65;;
29908;SDS011;36247;51.952;6.146;2022-09-25T09:25:47;6.45;;;1.48;;
29908;SDS011;36247;51.952;6.146;2022-09-25T09:34:21;4.65;;;1.38;;
29908;SDS011;36247;51.952;6.146;2022-09-25T09:36:59;2.92;;;1.13;;
29908;SDS011;36247;51.952;6.146;2022-09-25T09:39:37;6.60;;;1.17;;
29908;SDS011;36247;51.952;6.146;2022-09-25T09:42:26;3.70;;;1.20;;
29908;SDS011;36247;51.952;6.146;2022-09-25T09:47:58;5.07;;;1.15;;
29908;SDS011;36247;51.952;6.146;2022-09-25T09:53:56;5.40;;;1.45;;
29908;SDS011;36247;51.952;6.146;2022-09-25T09:56:14;6.13;;;1.33;;
29908;SDS011;36247;51.952;6.146;2022-09-25T09:58:57;4.78;;;2.00;;
29908;SDS011;36247;51.952;6.146;2022-09-25T10:01:27;2.45;;;0.98;;
29908;SDS011;36247;51.952;6.146;2022-09-25T10:04:16;2.35;;;0.73;;
29908;SDS011;36247;51.952;6.146;2022-09-25T10:06:54;1.38;;;1.02;;
29908;SDS011;36247;51.952;6.146;2022-09-25T10:09:26;2.85;;;0.80;;
29908;SDS011;36247;51.952;6.146;2022-09-25T10:12:00;3.50;;;1.23;;
29908;SDS011;36247;51.952;6.146;2022-09-25T10:14:31;6.57;;;1.20;;
29908;SDS011;36247;51.952;6.146;2022-09-25T10:17:01;1.60;;;0.70;;
29908;SDS011;36247;51.952;6.146;2022-09-25T10:19:28;2.28;;;1.00;;
29908;SDS011;36247;51.952;6.146;2022-09-25T10:22:10;3.08;;;1.23;;
29908;SDS011;36247;51.952;6.146;2022-09-25T10:27:36;4.53;;;1.08;;
29908;SDS011;36247;51.952;6.146;2022-09-25T10:32:41;4.90;;;1.05;;
29908;SDS011;36247;51.952;6.146;2022-09-25T10:35:14;1.52;;;0.98;;
29908;SDS011;36247;51.952;6.146;2022-09-25T10:37:42;4.25;;;1.50;;
29908;SDS011;36247;51.952;6.146;2022-09-25T10:40:27;4.07;;;1.10;;
29908;SDS011;36247;51.952;6.146;2022-09-25T10:45:36;3.88;;;1.33;;
29908;SDS011;36247;51.952;6.146;2022-09-25T10:48:22;8.65;;;1.58;;
29908;SDS011;36247;51.952;6.146;2022-09-25T10:51:14;3.85;;;1.42;;
29908;SDS011;36247;51.952;6.146;2022-09-25T10:53:46;3.47;;;1.23;;
29908;SDS011;36247;51.952;6.146;2022-09-25T10:58:56;6.20;;;1.30;;
29908;SDS011;36247;51.952;6.146;2022-09-25T11:01:32;3.72;;;1.77;;
29908;SDS011;36247;51.952;6.146;2022-09-25T11:04:00;4.55;;;1.30;;
29908;SDS011;36247;51.952;6.146;2022-09-25T11:06:31;6.72;;;1.10;;
29908;SDS011;36247;51.952;6.146;2022-09-25T11:09:01;3.13;;;0.90;;
29908;SDS011;36247;51.952;6.146;2022-09-25T11:11:28;1.60;;;0.80;;
29908;SDS011;36247;51.952;6.146;2022-09-25T11:13:54;3.40;;;1.08;;
29908;SDS011;36247;51.952;6.146;2022-09-25T11:19:19;3.80;;;1.05;;
29908;SDS011;36247;51.952;6.146;2022-09-25T11:25:11;1.95;;;0.80;;
29908;SDS011;36247;51.952;6.146;2022-09-25T11:30:50;4.22;;;1.10;;
29908;SDS011;36247;51.952;6.146;2022-09-25T11:33:35;0.88;;;0.70;;
29908;SDS011;36247;51.952;6.146;2022-09-25T11:36:08;2.90;;;0.95;;
29908;SDS011;36247;51.952;6.146;2022-09-25T11:38:55;3.47;;;0.70;;
29908;SDS011;36247;51.952;6.146;2022-09-25T11:44:44;3.60;;;1.00;;
29908;SDS011;36247;51.952;6.146;2022-09-25T11:49:52;1.80;;;0.90;;
29908;SDS011;36247;51.952;6.146;2022-09-25T12:12:19;2.50;;;0.80;;
29908;SDS011;36247;51.952;6.146;2022-09-25T12:20:40;2.55;;;1.00;;
29908;SDS011;36247;51.952;6.146;2022-09-25T12:29:14;0.95;;;0.88;;
29908;SDS011;36247;51.952;6.146;2022-09-25T12:31:45;3.55;;;0.88;;
29908;SDS011;36247;51.952;6.146;2022-09-25T12:37:04;1.30;;;0.52;;
29908;SDS011;36247;51.952;6.146;2022-09-25T12:39:55;1.65;;;0.70;;
29908;SDS011;36247;51.952;6.146;2022-09-25T12:43:11;3.70;;;0.98;;
29908;SDS011;36247;51.952;6.146;2022-09-25T12:45:36;1.77;;;0.82;;
29908;SDS011;36247;51.952;6.146;2022-09-25T13:01:24;7.20;;;1.30;;
29908;SDS011;36247;51.952;6.146;2022-09-25T13:04:10;5.57;;;1.10;;
29908;SDS011;36247;51.952;6.146;2022-09-25T13:12:04;1.45;;;0.90;;
29908;SDS011;36247;51.952;6.146;2022-09-25T13:14:47;2.65;;;0.85;;
29908;SDS011;36247;51.952;6.146;2022-09-25T13:17:22;3.40;;;1.15;;
29908;SDS011;36247;51.952;6.146;2022-09-25T13:19:48;3.00;;;1.10;;
29908;SDS011;36247;51.952;6.146;2022-09-25T13:22:18;4.38;;;2.00;;
29908;SDS011;36247;51.952;6.146;2022-09-25T13:24:57;5.22;;;1.48;;
29908;SDS011;36247;51.952;6.146;2022-09-25T13:27:27;11.90;;;6.85;;
29908;SDS011;36247;51.952;6.146;2022-09-25T13:30:02;2.90;;;1.20;;
29908;SDS011;36247;51.952;6.146;2022-09-25T13:32:32;3.53;;;0.90;;
29908;SDS011;36247;51.952;6.146;2022-09-25T13:35:06;6.43;;;1.38;;
29908;SDS011;36247;51.952;6.146;2022-09-25T13:37:42;4.38;;;0.98;;
29908;SDS011;36247;51.952;6.146;2022-09-25T13:40:17;3.55;;;0.82;;
29908;SDS011;36247;51.952;6.146;2022-09-25T13:43:17;2.55;;;1.10;;
29908;SDS011;36247;51.952;6.146;2022-09-25T13:45:48;4.35;;;1.20;;
29908;SDS011;36247;51.952;6.146;2022-09-25T13:48:40;3.38;;;1.02;;
29908;SDS011;36247;51.952;6.146;2022-09-25T13:53:54;4.18;;;1.42;;
29908;SDS011;36247;51.952;6.146;2022-09-25T14:01:43;2.15;;;0.93;;
29908;SDS011;36247;51.952;6.146;2022-09-25T14:04:15;3.35;;;1.08;;
29908;SDS011;36247;51.952;6.146;2022-09-25T14:06:47;1.30;;;1.10;;
29908;SDS011;36247;51.952;6.146;2022-09-25T14:09:20;3.10;;;1.02;;
29908;SDS011;36247;51.952;6.146;2022-09-25T14:11:58;1.70;;;1.02;;
29908;SDS011;36247;51.952;6.146;2022-09-25T14:14:45;1.20;;;0.85;;
29908;SDS011;36247;51.952;6.146;2022-09-25T14:17:19;3.05;;;1.15;;
29908;SDS011;36247;51.952;6.146;2022-09-25T14:19:48;1.70;;;1.10;;
29908;SDS011;36247;51.952;6.146;2022-09-25T14:22:18;1.75;;;0.88;;
29908;SDS011;36247;51.952;6.146;2022-09-25T14:24:51;4.43;;;1.10;;
29908;SDS011;36247;51.952;6.146;2022-09-25T14:27:21;2.75;;;0.98;;
29908;SDS011;36247;51.952;6.146;2022-09-25T14:29:50;4.05;;;1.17;;
29908;SDS011;36247;51.952;6.146;2022-09-25T14:40:27;3.47;;;0.90;;
29908;SDS011;36247;51.952;6.146;2022-09-25T14:46:05;2.58;;;1.00;;
29908;SDS011;36247;51.952;6.146;2022-09-25T14:48:41;2.30;;;1.05;;
29908;SDS011;36247;51.952;6.146;2022-09-25T14:51:14;6.53;;;2.58;;
29908;SDS011;36247;51.952;6.146;2022-09-25T14:53:47;2.78;;;0.80;;
29908;SDS011;36247;51.952;6.146;2022-09-25T14:56:18;1.58;;;1.02;;
29908;SDS011;36247;51.952;6.146;2022-09-25T14:58:55;2.40;;;0.80;;
29908;SDS011;36247;51.952;6.146;2022-09-25T15:01:25;5.88;;;0.90;;
29908;SDS011;36247;51.952;6.146;2022-09-25T15:03:54;1.13;;;0.60;;
29908;SDS011;36247;51.952;6.146;2022-09-25T15:06:29;2.13;;;0.85;;
29908;SDS011;36247;51.952;6.146;2022-09-25T15:08:57;3.42;;;1.25;;
29908;SDS011;36247;51.952;6.146;2022-09-25T15:11:36;2.83;;;1.30;;
29908;SDS011;36247;51.952;6.146;2022-09-25T15:14:10;5.07;;;0.93;;
29908;SDS011;36247;51.952;6.146;2022-09-25T15:16:40;4.85;;;1.05;;
29908;SDS011;36247;51.952;6.146;2022-09-25T15:19:30;2.97;;;1.17;;
29908;SDS011;36247;51.952;6.146;2022-09-25T15:21:58;1.88;;;1.08;;
29908;SDS011;36247;51.952;6.146;2022-09-25T15:24:27;3.45;;;1.23;;
29908;SDS011;36247;51.952;6.146;2022-09-25T15:26:59;1.00;;;0.85;;
29908;SDS011;36247;51.952;6.146;2022-09-25T15:29:36;1.05;;;0.77;;
29908;SDS011;36247;51.952;6.146;2022-09-25T15:32:03;3.63;;;1.52;;
29908;SDS011;36247;51.952;6.146;2022-09-25T15:34:30;3.95;;;1.15;;
29908;SDS011;36247;51.952;6.146;2022-09-25T15:39:55;3.28;;;1.27;;
29908;SDS011;36247;51.952;6.146;2022-09-25T15:42:24;1.63;;;1.20;;
29908;SDS011;36247;51.952;6.146;2022-09-25T15:44:50;1.90;;;1.08;;
29908;SDS011;36247;51.952;6.146;2022-09-25T15:47:46;2.88;;;1.00;;
29908;SDS011;36247;51.952;6.146;2022-09-25T15:50:18;3.35;;;1.17;;
29908;SDS011;36247;51.952;6.146;2022-09-25T15:52:49;2.75;;;1.20;;
29908;SDS011;36247;51.952;6.146;2022-09-25T15:55:16;6.78;;;1.42;;
29908;SDS011;36247;51.952;6.146;2022-09-25T15:57:44;5.20;;;1.27;;
29908;SDS011;36247;51.952;6.146;2022-09-25T16:00:17;2.28;;;1.35;;
29908;SDS011;36247;51.952;6.146;2022-09-25T16:03:18;4.97;;;1.80;;
29908;SDS011;36247;51.952;6.146;2022-09-25T16:06:05;3.47;;;1.33;;
29908;SDS011;36247;51.952;6.146;2022-09-25T16:08:36;4.75;;;1.50;;
29908;SDS011;36247;51.952;6.146;2022-09-25T16:11:20;2.53;;;1.30;;
29908;SDS011;36247;51.952;6.146;2022-09-25T16:13:51;2.33;;;1.33;;
29908;SDS011;36247;51.952;6.146;2022-09-25T16:16:24;2.53;;;1.20;;
29908;SDS011;36247;51.952;6.146;2022-09-25T16:18:58;2.75;;;1.40;;
29908;SDS011;36247;51.952;6.146;2022-09-25T16:21:37;2.15;;;1.20;;
29908;SDS011;36247;51.952;6.146;2022-09-25T16:24:04;3.75;;;1.60;;
29908;SDS011;36247;51.952;6.146;2022-09-25T16:26:40;5.78;;;1.38;;
29908;SDS011;36247;51.952;6.146;2022-09-25T16:31:37;52.30;;;24.73;;
29908;SDS011;36247;51.952;6.146;2022-09-25T16:34:04;30.98;;;15.80;;
29908;SDS011;36247;51.952;6.146;2022-09-25T16:36:41;16.40;;;8.05;;
29908;SDS011;36247;51.952;6.146;2022-09-25T16:41:34;18.02;;;7.88;;
29908;SDS011;36247;51.952;6.146;2022-09-25T16:46:39;5.43;;;1.85;;
29908;SDS011;36247;51.952;6.146;2022-09-25T16:49:05;2.63;;;1.45;;
29908;SDS011;36247;51.952;6.146;2022-09-25T16:51:31;5.45;;;2.72;;
29908;SDS011;36247;51.952;6.146;2022-09-25T16:53:58;3.97;;;2.65;;
29908;SDS011;36247;51.952;6.146;2022-09-25T16:56:25;5.97;;;3.75;;
29908;SDS011;36247;51.952;6.146;2022-09-25T16:58:53;5.20;;;2.22;;
29908;SDS011;36247;51.952;6.146;2022-09-25T17:01:20;4.18;;;2.22;;
29908;SDS011;36247;51.952;6.146;2022-09-25T17:03:47;4.07;;;1.70;;
29908;SDS011;36247;51.952;6.146;2022-09-25T17:06:20;4.97;;;3.13;;
29908;SDS011;36247;51.952;6.146;2022-09-25T17:08:47;10.38;;;3.83;;
29908;SDS011;36247;51.952;6.146;2022-09-25T17:11:14;6.63;;;2.20;;
29908;SDS011;36247;51.952;6.146;2022-09-25T17:13:41;29.15;;;14.50;;
29908;SDS011;36247;51.952;6.146;2022-09-25T17:16:08;18.55;;;10.55;;
29908;SDS011;36247;51.952;6.146;2022-09-25T17:18:34;27.10;;;15.57;;
29908;SDS011;36247;51.952;6.146;2022-09-25T17:21:01;15.45;;;10.07;;
29908;SDS011;36247;51.952;6.146;2022-09-25T17:23:29;16.50;;;8.57;;
29908;SDS011;36247;51.952;6.146;2022-09-25T17:25:59;15.98;;;7.22;;
29908;SDS011;36247;51.952;6.146;2022-09-25T17:28:28;9.65;;;5.43;;
29908;SDS011;36247;51.952;6.146;2022-09-25T17:30:57;24.73;;;10.70;;
29908;SDS011;36247;51.952;6.146;2022-09-25T17:33:25;16.35;;;7.15;;
29908;SDS011;36247;51.952;6.146;2022-09-25T17:38:46;1.83;;;1.48;;
29908;SDS011;36247;51.952;6.146;2022-09-25T17:41:34;4.30;;;2.50;;
29908;SDS011;36247;51.952;6.146;2022-09-25T17:44:01;5.78;;;3.28;;
29908;SDS011;36247;51.952;6.146;2022-09-25T17:46:31;5.25;;;2.40;;
29908;SDS011;36247;51.952;6.146;2022-09-25T17:49:00;4.30;;;2.42;;
29908;SDS011;36247;51.952;6.146;2022-09-25T17:51:26;3.70;;;2.55;;
29908;SDS011;36247;51.952;6.146;2022-09-25T17:53:53;3.05;;;2.22;;
29908;SDS011;36247;51.952;6.146;2022-09-25T17:56:20;5.15;;;2.75;;
29908;SDS011;36247;51.952;6.146;2022-09-25T17:58:47;3.85;;;2.47;;